2
0

Commit Graph

  • a95247b7df Fix autofilled text visibility in dark mode (#22088) Chongyi Zheng 2022-12-13 06:06:23 -05:00
  • 9a9c91b435 Fix autofilled text visibility in dark mode (#22088) Chongyi Zheng 2022-12-13 06:06:23 -05:00
  • c36a1bc766 Fix parallel creating commit status bug with tests (#21911) (#21989) Lunny Xiao 2022-12-13 18:59:18 +08:00
  • c057590a3a Fix sorting admin user list by last login (#22081) (#22106) aceArt-GmbH 2022-12-13 02:18:20 +01:00
  • 079ef56824 Fix permission check on issue/pull lock (#22113) Lunny Xiao 2022-12-13 03:59:50 +08:00
  • a8534ac4a4 Fix permission check on issue/pull lock (#22114) Lunny Xiao 2022-12-13 03:59:28 +08:00
  • 87c64f655a Fix permission check on issue/pull lock (#22110) Lunny Xiao 2022-12-12 23:02:51 +08:00
  • 7865ec5e45 Fix permission check on issue/pull lock (#22110) Lunny Xiao 2022-12-12 23:02:51 +08:00
  • 36a2d2f919 Add a simple test for external renderer (#20033) Lunny Xiao 2022-12-12 20:45:21 +08:00
  • 6a134a8dfd Add a simple test for external renderer (#20033) Lunny Xiao 2022-12-12 20:45:21 +08:00
  • 6398ca745a refactor bind functions based on generics (#22055) Lunny Xiao 2022-12-12 16:09:26 +08:00
  • 43caeefea4 refactor bind functions based on generics (#22055) Lunny Xiao 2022-12-12 16:09:26 +08:00
  • 003b4e209c Allow disable code tab (#20805) Lunny Xiao 2022-12-12 13:29:27 +08:00
  • dafa40abc6 Allow disable code tab (#20805) Lunny Xiao 2022-12-12 13:29:27 +08:00
  • 3e8285b824 Use multi reader instead to concat strings (#22099) Lunny Xiao 2022-12-12 11:03:54 +08:00
  • 8eaac21b88 Use multi reader instead to concat strings (#22099) Lunny Xiao 2022-12-12 11:03:54 +08:00
  • 352a50d65f Fix sorting admin user list by last login (#22081) aceArt-GmbH 2022-12-12 01:00:17 +01:00
  • 567f079996 Fix sorting admin user list by last login (#22081) aceArt-GmbH 2022-12-12 01:00:17 +01:00
  • c9ef03af65 Fix wrong default value for update checker on app.example.ini (#22084) Lunny Xiao 2022-12-12 06:08:01 +08:00
  • be48ea9d9f Fix wrong default value for update checker on app.example.ini (#22084) Lunny Xiao 2022-12-12 06:08:01 +08:00
  • 112e425f90 fix(config): remove context on config template (#22096) Restray 2022-12-11 05:06:12 +01:00
  • 1845b35643 fix(config): remove context on config template (#22096) Restray 2022-12-11 05:06:12 +01:00
  • 601d126627 [skip ci] Updated licenses and gitignores KN4CK3R 2022-12-11 00:19:34 +00:00
  • 5c7a42eab9 [skip ci] Updated licenses and gitignores KN4CK3R 2022-12-11 00:19:34 +00:00
  • 0e2d04601a Update xorm (#22094) KN4CK3R 2022-12-11 00:53:32 +01:00
  • 48f908e0dc Update xorm (#22094) KN4CK3R 2022-12-11 00:53:32 +01:00
  • 9745c33e9e Remove unnecessary whitespace in snapcraft.yaml (#22090) Yarden Shoham 2022-12-10 16:31:16 +02:00
  • 4845e33d0b Remove unnecessary whitespace in snapcraft.yaml (#22090) Yarden Shoham 2022-12-10 16:31:16 +02:00
  • e23ad87b55 Workaround for container registry push/pull errors (#21862) (#22069) KN4CK3R 2022-12-10 15:22:41 +01:00
  • 68704532c2 Rename almost all Ctx functions (#22071) Lunny Xiao 2022-12-10 10:46:31 +08:00
  • 627a56efd7 Rename almost all Ctx functions (#22071) Lunny Xiao 2022-12-10 10:46:31 +08:00
  • b54c064f89 Workaround for container registry push/pull errors (#21862) (#22068) KN4CK3R 2022-12-10 01:11:46 +01:00
  • 097d4e30b1 Change ID pattern of raw content container for issue (#21966) Felipe Leopoldo Sologuren Gutiérrez 2022-12-09 13:25:32 -03:00
  • c570be9ecc Change ID pattern of raw content container for issue (#21966) Felipe Leopoldo Sologuren Gutiérrez 2022-12-09 13:25:32 -03:00
  • 2779d47ad3 Optimize html templates (#22080) Jason Song 2022-12-09 21:34:51 +08:00
  • 668a45c0cf Optimize html templates (#22080) Jason Song 2022-12-09 21:34:51 +08:00
  • 3c59d31bc6 Add API management for issue/pull and comment attachments (#21783) KN4CK3R 2022-12-09 07:35:56 +01:00
  • 0bf46316db Add API management for issue/pull and comment attachments (#21783) KN4CK3R 2022-12-09 07:35:56 +01:00
  • 8fb1e53ca2 Rename actions to operations on UI (#22067) Jason Song 2022-12-08 21:14:09 +08:00
  • aebf2650bb Rename actions to operations on UI (#22067) Jason Song 2022-12-08 21:14:09 +08:00
  • 0585ac3ac6 Update go dev dependencies (#22064) silverwind 2022-12-08 09:21:37 +01:00
  • 393db62cf8 Update go dev dependencies (#22064) silverwind 2022-12-08 09:21:37 +01:00
  • cf27403e18 Round language stats percentage using largest remainder (#22026) hr-98 2022-12-08 02:47:47 +00:00
  • d7891190db Round language stats percentage using largest remainder (#22026) hr-98 2022-12-08 02:47:47 +00:00
  • 0a85537c79 Support disabling database auto migration (#22053) Jason Song 2022-12-07 23:58:31 +08:00
  • d39c0e2417 Support disabling database auto migration (#22053) Jason Song 2022-12-07 23:58:31 +08:00
  • c0ca9c612b Fix issue/PR numbers (#22037) (#22044) Jason Song 2022-12-07 14:20:12 +08:00
  • e93a4a0174 Fix issue/PR numbers (#22037) (#22045) Jason Song 2022-12-06 22:15:38 +08:00
  • e39bb2d05a Handle empty author names (#21902) (#22027) zeripath 2022-12-06 13:16:47 +00:00
  • e2fa84fddc Release and Tag List tweaks (#21712) silverwind 2022-12-06 14:15:46 +01:00
  • 2f3baaf861 Release and Tag List tweaks (#21712) silverwind 2022-12-06 14:15:46 +01:00
  • ac54331549 Add dumb-init to rootless docker (#22046) Michael Kriese 2022-12-06 12:01:58 +01:00
  • 74874d065f Fix issue/PR numbers (#22037) Jason Song 2022-12-06 15:53:09 +08:00
  • ae6a6cde9e Fix issue/PR numbers (#22037) Jason Song 2022-12-06 15:53:09 +08:00
  • 601766d1fa Handle empty author names (#21902) (#22028) zeripath 2022-12-06 03:49:28 +00:00
  • 77f50356f4 Remove useless "Cancel" buttons (#21872) Yarden Shoham 2022-12-05 14:38:34 +02:00
  • df799b1a25 Remove useless "Cancel" buttons (#21872) Yarden Shoham 2022-12-05 14:38:34 +02:00
  • 35fc9ad984 Use GhostUser if needed for TrackedTimes (#22021) (#22029) zeripath 2022-12-05 12:20:37 +00:00
  • ee6d5124bd On Tag/Branch Exist Check, dont panic if repo is nil (#21787) (#21789) 6543 2022-12-05 11:20:37 +01:00
  • 6e4ba04843 Ensure that Chinese punctuation is not ambiguous when locale is Chinese (#22019) (#22030) zeripath 2022-12-05 09:20:38 +00:00
  • 09794b4259 Fix ListBranches to handle empty case (#21921) (#22024) Lunny Xiao 2022-12-05 06:13:11 +08:00
  • 8188cdfcd2 Fix ListBranches to handle empty case (#21921) (#22025) Lunny Xiao 2022-12-05 05:57:33 +08:00
  • a08584ee36 Ensure that Chinese punctuation is not ambiguous when locale is Chinese (#22019) zeripath 2022-12-04 17:57:30 +00:00
  • 363e03ff1b Ensure that Chinese punctuation is not ambiguous when locale is Chinese (#22019) zeripath 2022-12-04 17:57:30 +00:00
  • ea86c2b56a Use GhostUser if needed for TrackedTimes (#22021) zeripath 2022-12-04 17:48:18 +00:00
  • 55a52e6ee0 Use GhostUser if needed for TrackedTimes (#22021) zeripath 2022-12-04 17:48:18 +00:00
  • 84d2a820e5 Add dumb-init to rootless docker (#21775) Michael Kriese 2022-12-04 12:12:06 +01:00
  • 260e947ecb Add dumb-init to rootless docker (#21775) Michael Kriese 2022-12-04 12:12:06 +01:00
  • 757b49ec5e Do not emit ambiguous character warning on rendered pages (#22016) (#22018) zeripath 2022-12-04 11:10:54 +00:00
  • 9819a47717 On tag/branch-exist check, dont panic if repo is nil (#21787) (#21788) 6543 2022-12-04 11:29:19 +01:00
  • 46485848fa On tag/branch-exist check, dont panic if repo is nil (#21787) 6543 2022-12-04 11:28:57 +01:00
  • 581e672eca On tag/branch-exist check, dont panic if repo is nil (#21787) 6543 2022-12-04 11:28:57 +01:00
  • 36cbaec54c Fix ListBranches to handle empty case (#21921) Lunny Xiao 2022-12-04 16:57:17 +08:00
  • b34dd08e8b Fix ListBranches to handle empty case (#21921) Lunny Xiao 2022-12-04 16:57:17 +08:00
  • 9eb9cf5153 fix(web): reduce page jitter on browsers that support overlay scrollbar (#21850) Percy Ma 2022-12-04 16:56:10 +08:00
  • 319785a216 fix(web): reduce page jitter on browsers that support overlay scrollbar (#21850) Percy Ma 2022-12-04 16:56:10 +08:00
  • c7770fa502 Use path not filepath in template filenames (#21993) (#22022) zeripath 2022-12-04 05:58:58 +00:00
  • d084ce306a [skip ci] Updated licenses and gitignores zeripath 2022-12-04 00:19:34 +00:00
  • b998d20fda [skip ci] Updated licenses and gitignores zeripath 2022-12-04 00:19:34 +00:00
  • 0e46499258 Do not emit ambiguous character warning on rendered pages (#22016) zeripath 2022-12-03 15:47:00 +00:00
  • 1b7c55cf97 Do not emit ambiguous character warning on rendered pages (#22016) zeripath 2022-12-03 15:47:00 +00:00
  • 181f4bfdb1 docs: add Edit this page (#21981) Xinyu Zhou 2022-12-03 19:51:53 +08:00
  • bf9b02da27 docs: add Edit this page (#21981) Xinyu Zhou 2022-12-03 19:51:53 +08:00
  • 0a7d3ff786 refactor some functions to support ctx as first parameter (#21878) Lunny Xiao 2022-12-03 10:48:26 +08:00
  • 53fc37c1f0 refactor some functions to support ctx as first parameter (#21878) Lunny Xiao 2022-12-03 10:48:26 +08:00
  • 8698458f48 Remove deprecated packages & staticcheck fixes (#22012) Chongyi Zheng 2022-12-02 17:06:23 -05:00
  • 2f2db39317 Remove deprecated packages & staticcheck fixes (#22012) Chongyi Zheng 2022-12-02 17:06:23 -05:00
  • da956b863b Multiple improvements for comment edit diff (#21990) (#22007) silverwind 2022-12-02 21:42:41 +01:00
  • 21bcb92926 Add pnpm to packages/overview (#22008) xtexChooser 2022-12-03 00:23:47 +08:00
  • ebab026d35 Add pnpm to packages/overview (#22008) xtexChooser 2022-12-03 00:23:47 +08:00
  • 350bc83d00 Update to Alpine 3.17 (#21904) flynnnnnnnnnn 2022-12-02 11:23:26 -05:00
  • 6181c23e24 Update to Alpine 3.17 (#21904) flynnnnnnnnnn 2022-12-02 11:23:26 -05:00
  • f59a74852b Update gitea-vet to check FSFE REUSE (#22004) Jason Song 2022-12-02 22:14:57 +08:00
  • eb974fbef7 Update gitea-vet to check FSFE REUSE (#22004) Jason Song 2022-12-02 22:14:57 +08:00
  • d64063277d Multiple improvements for comment edit diff (#21990) silverwind 2022-12-02 10:42:34 +01:00
  • 7b3791d36b Multiple improvements for comment edit diff (#21990) silverwind 2022-12-02 10:42:34 +01:00
  • df676a47d0 Remove session in api tests (#21984) Lunny Xiao 2022-12-02 11:39:42 +08:00
  • f3ba9149e0 Remove session in api tests (#21984) Lunny Xiao 2022-12-02 11:39:42 +08:00
  • 665d02efaf Remove duplicate "Actions" label in mobile view (#21974) Mark Ormesher 2022-12-02 03:39:19 +00:00
  • 104a7f8ebd Remove duplicate "Actions" label in mobile view (#21974) Mark Ormesher 2022-12-02 03:39:19 +00:00